Crescent City, CA (95538)

10:03 PM PDT on August 20, 2014 (GMT -0700)
KCACRESC8 | Change Station
CLOSE
Current Station
Personal Weather Station
Location: Crescent City, CA
Elevation: 59 ft
Nearby Weather Stations

Elev 59 ft 41.76 °N, 124.21 °W | Updated 4 seconds ago

Clear
Clear
59.7 °F
Feels Like 59.7 °F
N
0.0
Wind Variable Wind from North
Gusts 0.7 mph

Today
High -- | Low -- °F
--% Chance of Precip.
Yesterday
High -- | Low -- °F
Precip. -- in
6:30 AM 8:09 PM
Waning Crescent, 17% visible
Pressure 29.92 in
Visibility 10.0 miles
Clouds Clear
Dew Point 56 °F
Humidity 87%
Rainfall 0.00 in
Snow Depth Not available.
UV 0 out of 12
Pollen 5.30 out of 12
Air Quality Not available.
Flu Activity Not available.
METAR KCEC 210456Z AUTO 15008KT 10SM CLR 15/12 A2992 RMK AO2 SLP131 T01500122 $

More Conditions Fewer Conditions

Pressure 29.92 in
Visibility 10.0 miles
Clouds Clear
Dew Point 56 °F
Humidity 87%
Rainfall 0.00 in
Snow Depth Not available.
UV 0 out of 12
Pollen 5.30 out of 12
Air Quality Not available.
Flu Activity Not available.
METAR KCEC 210456Z AUTO 15008KT 10SM CLR 15/12 A2992 RMK AO2 SLP131 T01500122 $

More Conditions Fewer Conditions

10-Day Weather Forecast

Almanac

Astronomy

Aug. 20, 2014 Rise Set
Actual Time 6:30 AM PDT 8:09 PM PDT
Civil Twilight 6:00 AM PDT 8:38 PM PDT
Nautical Twilight 5:24 AM PDT 9:14 PM PDT
Astronomical Twilight 4:46 AM PDT 9:52 PM PDT
Moon 2:13 AM PDT (8/20) 5:00 PM PDT (8/20)
Length of Visible Light 14h 37m
Length of Day
13h 38m
Tomorrow will be 2m 34s shorter.
Waning Crescent, 17% of the Moon is Illuminated
Aug 21
Waning Crescent
Aug 25
New
Sep 2
First Quarter
Sep 8
Full
Sep 15
Last Quarter

Yesterday's Extremes

State Highs State Lows

Community

WunderPhotos

Upload Photos

1,745,857 photos uploaded!

Nearby

Snow Depth

Station Depth Elevation
Adin Mountain 1 in 6200 ft
Cedar Pass 0 in 7100 ft
Echo Peak 1 in 7800 ft
Hagan's Meadow 0 in 8000 ft
Forestdale Creek 0 in 8029 ft

Earthquake Activity

City Distance Mag. Time & Date
Crescent City, California 101 miles 2.8 2:15 PM PDT
2014-08-15
Minimum magnitude displayed is 2.5.

Coastal Water Temperatures

Place Temperature
Port Orford, OR 48.9 °F
Crescent City, CA 60.1 °F
Charleston, OR 52.0 °F

Nearby Weather Stations